createdAt,value
2023-02-09T00:01:08.030Z,10.00
2023-02-09T00:03:36.885Z,10.00
2023-02-09T00:06:06.561Z,9.67
2023-02-09T00:08:37.648Z,10.23
2023-02-09T00:11:09.516Z,10.53
2023-02-09T00:13:38.347Z,9.90
2023-02-09T00:16:06.904Z,9.93
2023-02-09T00:18:35.200Z,10.00
2023-02-09T00:21:06.419Z,9.87
2023-02-09T00:23:36.821Z,10.63
2023-02-09T00:26:06.989Z,10.37
2023-02-09T00:28:35.584Z,10.53
2023-02-09T00:31:08.950Z,9.03
2023-02-09T00:33:37.830Z,9.77
2023-02-09T00:36:07.244Z,10.03
2023-02-09T00:38:35.450Z,10.10
2023-02-09T00:41:04.090Z,9.73
2023-02-09T00:43:32.742Z,9.73
2023-02-09T00:46:01.019Z,9.90
2023-02-09T00:48:30.739Z,10.13
2023-02-09T00:50:59.096Z,8.97
2023-02-09T00:53:27.285Z,9.50
2023-02-09T00:55:55.306Z,8.80
2023-02-09T00:58:24.339Z,8.23
2023-02-09T01:00:52.507Z,9.53
2023-02-09T01:03:20.548Z,9.07
2023-02-09T01:05:50.015Z,9.17
2023-02-09T01:08:18.032Z,9.80
2023-02-09T01:10:47.813Z,8.83
2023-02-09T01:13:15.983Z,8.67
2023-02-09T01:15:44.144Z,9.03
2023-02-09T01:18:12.499Z,8.57
2023-02-09T01:20:42.170Z,8.60
2023-02-09T01:23:11.616Z,8.30
2023-02-09T01:25:39.644Z,8.50
2023-02-09T01:28:07.680Z,8.47
2023-02-09T01:30:35.839Z,8.57
2023-02-09T01:33:03.891Z,8.07
2023-02-09T01:35:32.423Z,7.87
2023-02-09T01:38:00.569Z,8.67
2023-02-09T01:40:30.104Z,9.67
2023-02-09T01:42:58.233Z,8.90
2023-02-09T01:45:35.025Z,8.20
2023-02-09T01:48:04.824Z,8.00
2023-02-09T01:50:38.574Z,8.00
2023-02-09T01:53:07.973Z,7.63
2023-02-09T01:55:41.812Z,6.67
2023-02-09T01:58:14.712Z,7.07
2023-02-09T02:00:43.426Z,7.40
2023-02-09T02:03:15.907Z,7.33
2023-02-09T02:05:47.381Z,7.20
2023-02-09T02:08:20.699Z,6.73
2023-02-09T02:10:50.411Z,6.73
2023-02-09T02:13:19.105Z,6.57
2023-02-09T02:15:56.147Z,7.43
2023-02-09T02:18:36.457Z,7.30
2023-02-09T02:21:37.431Z,7.00
2023-02-09T02:24:45.968Z,6.37
2023-02-09T02:27:29.465Z,6.30
2023-02-09T02:30:27.994Z,6.33
2023-02-09T02:33:11.848Z,6.03
2023-02-09T02:35:48.022Z,6.93
2023-02-09T02:38:20.724Z,5.87
2023-02-09T02:40:58.108Z,6.43
2023-02-09T02:43:40.868Z,6.37
2023-02-09T02:46:16.759Z,6.33
2023-02-09T02:48:53.837Z,6.40
2023-02-09T02:51:31.069Z,6.40
2023-02-09T02:54:03.175Z,6.97
2023-02-09T02:56:35.677Z,6.47
2023-02-09T02:59:08.162Z,6.07
2023-02-09T03:01:43.151Z,5.60
2023-02-09T03:04:14.420Z,6.30
2023-02-09T03:06:42.477Z,5.90
2023-02-09T03:09:10.876Z,6.80
2023-02-09T03:11:41.479Z,5.53
2023-02-09T03:14:32.725Z,6.17
2023-02-09T03:17:10.792Z,5.83
2023-02-09T03:19:47.352Z,6.33
2023-02-09T03:22:23.872Z,6.93
2023-02-09T03:24:56.499Z,6.27
2023-02-09T03:27:28.503Z,6.33
2023-02-09T03:29:59.156Z,6.47
2023-02-09T03:32:28.135Z,6.03
2023-02-09T03:34:59.109Z,5.80
2023-02-09T03:37:27.434Z,6.37
2023-02-09T03:39:55.447Z,5.90
2023-02-09T03:42:23.472Z,6.40
2023-02-09T03:44:51.524Z,6.40
2023-02-09T03:47:19.533Z,6.33
2023-02-09T03:49:47.683Z,6.57
2023-02-09T03:52:17.457Z,6.53
2023-02-09T03:54:45.695Z,6.10
2023-02-09T03:57:13.745Z,5.50
2023-02-09T03:59:42.097Z,6.47
2023-02-09T04:02:11.445Z,6.33
2023-02-09T04:04:39.510Z,6.63
2023-02-09T04:07:07.976Z,5.70
2023-02-09T04:09:38.376Z,6.57
2023-02-09T04:12:07.181Z,5.77
2023-02-09T04:14:35.301Z,6.70
2023-02-09T04:17:03.439Z,6.67
2023-02-09T04:19:31.476Z,6.37
2023-02-09T04:22:00.124Z,6.03
2023-02-09T04:24:28.567Z,6.60
2023-02-09T04:26:57.964Z,6.43
2023-02-09T04:29:26.120Z,6.23
2023-02-09T04:31:54.369Z,6.17
2023-02-09T04:34:24.183Z,6.33
2023-02-09T04:36:52.410Z,6.70
2023-02-09T04:39:20.552Z,6.13
2023-02-09T04:41:48.589Z,6.57
2023-02-09T04:44:17.971Z,6.53
2023-02-09T04:46:46.028Z,6.30
2023-02-09T04:49:14.058Z,7.20
2023-02-09T04:51:42.125Z,6.90
2023-02-09T04:54:10.164Z,7.00
2023-02-09T04:56:38.889Z,6.30
2023-02-09T04:59:24.815Z,7.10
2023-02-09T05:01:54.345Z,6.33
2023-02-09T05:04:22.373Z,6.73
2023-02-09T05:06:50.410Z,7.27
2023-02-09T05:09:18.489Z,8.10
2023-02-09T05:11:46.497Z,7.00
2023-02-09T05:14:14.590Z,7.97
2023-02-09T05:16:42.634Z,7.13
2023-02-09T05:19:12.076Z,6.67
2023-02-09T05:21:40.118Z,7.17
2023-02-09T05:24:08.429Z,7.07
2023-02-09T05:26:36.678Z,7.27
2023-02-09T05:29:04.748Z,7.07
2023-02-09T05:31:32.822Z,6.93
2023-02-09T05:34:01.760Z,7.03
2023-02-09T05:36:31.210Z,6.60
2023-02-09T05:38:59.209Z,6.90
2023-02-09T05:41:43.969Z,7.00
2023-02-09T05:44:12.049Z,6.73
2023-02-09T05:46:40.048Z,6.90
2023-02-09T05:49:08.041Z,7.30
2023-02-09T05:51:37.457Z,7.60
2023-02-09T05:54:05.534Z,6.97
2023-02-09T05:56:33.628Z,8.00
2023-02-09T05:59:04.104Z,6.93
2023-02-09T06:01:32.389Z,7.53
2023-02-09T06:04:00.376Z,7.40
2023-02-09T06:06:28.486Z,7.83
2023-02-09T06:08:57.829Z,7.53
2023-02-09T06:11:25.839Z,7.23
2023-02-09T06:13:53.910Z,7.07
2023-02-09T06:16:21.981Z,7.30
2023-02-09T06:18:50.047Z,7.80
2023-02-09T06:21:18.485Z,8.00
2023-02-09T06:23:46.575Z,7.33
2023-02-09T06:26:18.048Z,7.47
2023-02-09T06:28:46.936Z,7.30
2023-02-09T06:31:15.458Z,7.73
2023-02-09T06:33:43.605Z,7.40
2023-02-09T06:36:11.931Z,7.50
2023-02-09T06:38:40.346Z,7.73
2023-02-09T06:41:08.415Z,7.43
2023-02-09T06:43:37.872Z,7.37
2023-02-09T06:46:10.169Z,6.80
2023-02-09T06:48:38.317Z,7.63
2023-02-09T06:51:09.734Z,8.47
2023-02-09T06:53:38.637Z,7.50
2023-02-09T06:56:07.268Z,7.57
2023-02-09T06:58:35.605Z,7.10
2023-02-09T07:01:05.477Z,6.93
2023-02-09T07:03:33.589Z,7.33
2023-02-09T07:06:05.297Z,7.00
2023-02-09T07:08:33.355Z,7.13
2023-02-09T07:11:03.552Z,7.53
2023-02-09T07:13:31.969Z,7.97
2023-02-09T07:16:02.111Z,6.93
2023-02-09T07:18:32.264Z,8.53
2023-02-09T07:21:01.993Z,7.80
2023-02-09T07:23:30.872Z,7.60
2023-02-09T07:26:03.176Z,7.83
2023-02-09T07:28:31.841Z,7.60
2023-02-09T07:31:04.917Z,8.23
2023-02-09T07:33:35.242Z,7.93
2023-02-09T07:36:05.245Z,7.87
2023-02-09T07:38:33.739Z,8.27
2023-02-09T07:41:02.819Z,8.00
2023-02-09T07:43:31.098Z,7.80
2023-02-09T07:46:02.619Z,9.00
2023-02-09T07:48:31.485Z,8.17
2023-02-09T07:51:01.052Z,8.07
2023-02-09T07:53:29.960Z,8.67
2023-02-09T07:55:58.311Z,8.27
2023-02-09T07:58:26.418Z,8.43
2023-02-09T08:00:54.420Z,8.57
2023-02-09T08:03:24.259Z,7.83
2023-02-09T08:05:59.494Z,8.03
2023-02-09T08:08:28.995Z,7.97
2023-02-09T08:10:59.315Z,8.87
2023-02-09T08:13:30.039Z,8.03
2023-02-09T08:16:02.930Z,8.27
2023-02-09T08:18:35.482Z,8.00
2023-02-09T08:21:06.161Z,7.53
2023-02-09T08:23:38.423Z,7.60
2023-02-09T08:26:10.378Z,7.93
2023-02-09T08:28:44.904Z,7.50
2023-02-09T08:31:13.665Z,7.60
2023-02-09T08:33:41.995Z,7.60
2023-02-09T08:36:15.069Z,7.93
2023-02-09T08:38:45.209Z,7.43
2023-02-09T08:41:15.770Z,7.77
2023-02-09T08:43:43.838Z,7.40
2023-02-09T08:46:13.948Z,7.70
2023-02-09T08:48:45.280Z,7.77
2023-02-09T08:51:15.320Z,7.77
2023-02-09T08:53:47.668Z,8.40
2023-02-09T08:56:15.793Z,7.00
2023-02-09T08:58:43.832Z,8.17
2023-02-09T09:01:13.461Z,8.27
2023-02-09T09:03:42.233Z,7.50
2023-02-09T09:06:12.171Z,7.80
2023-02-09T09:08:40.967Z,7.30
2023-02-09T09:11:13.189Z,7.57
2023-02-09T09:13:41.765Z,7.80
2023-02-09T09:16:15.582Z,8.13
2023-02-09T09:18:44.593Z,7.70
2023-02-09T09:21:12.921Z,8.90
2023-02-09T09:23:41.267Z,7.93
2023-02-09T09:26:10.857Z,8.43
2023-02-09T09:28:39.942Z,7.43
2023-02-09T09:31:12.484Z,8.17
2023-02-09T09:33:41.740Z,8.20
2023-02-09T09:36:10.829Z,8.47
2023-02-09T09:38:40.646Z,8.17
2023-02-09T09:41:20.956Z,8.90
2023-02-09T09:43:49.584Z,9.03
2023-02-09T09:46:20.334Z,7.50
2023-02-09T09:48:51.731Z,8.10
2023-02-09T09:51:23.766Z,8.63
2023-02-09T09:53:54.563Z,8.60
2023-02-09T09:56:26.852Z,8.07
2023-02-09T09:58:55.260Z,8.60
2023-02-09T10:01:23.453Z,8.03
2023-02-09T10:03:51.610Z,8.13
2023-02-09T10:06:22.174Z,8.20
2023-02-09T10:08:54.116Z,7.83
2023-02-09T10:11:28.888Z,8.17
2023-02-09T10:13:58.343Z,8.37
2023-02-09T10:16:29.169Z,7.93
2023-02-09T10:18:58.905Z,8.70
2023-02-09T10:21:30.134Z,8.50
2023-02-09T10:24:12.893Z,8.97
2023-02-09T10:26:43.135Z,8.57
2023-02-09T10:29:25.153Z,8.70
2023-02-09T10:31:58.310Z,7.97
2023-02-09T10:34:32.747Z,8.23
2023-02-09T10:37:18.791Z,9.10
2023-02-09T10:39:48.769Z,8.23
2023-02-09T10:42:24.312Z,9.03
2023-02-09T10:44:54.728Z,9.63
2023-02-09T10:47:30.053Z,8.60
2023-02-09T10:50:03.279Z,8.50
2023-02-09T10:52:35.392Z,9.50
2023-02-09T10:55:23.274Z,8.67
2023-02-09T10:57:52.918Z,9.03
2023-02-09T11:00:31.126Z,9.13
2023-02-09T11:03:02.747Z,9.63
2023-02-09T11:05:34.050Z,9.23
2023-02-09T11:08:10.094Z,9.07
2023-02-09T11:10:43.695Z,9.67
2023-02-09T11:13:19.968Z,10.30
2023-02-09T11:16:20.665Z,9.83
2023-02-09T11:18:58.182Z,9.20
2023-02-09T11:21:45.353Z,9.47
2023-02-09T11:24:19.858Z,9.63
2023-02-09T11:26:54.315Z,9.53
2023-02-09T11:29:30.497Z,10.43
2023-02-09T11:32:12.085Z,10.20
2023-02-09T11:35:10.642Z,9.40
2023-02-09T11:37:48.588Z,10.53
2023-02-09T11:40:37.358Z,10.47
2023-02-09T11:43:16.805Z,10.50
2023-02-09T11:45:48.599Z,10.40
2023-02-09T11:48:24.124Z,9.87
2023-02-09T11:51:04.305Z,11.07
2023-02-09T11:53:41.886Z,10.20
2023-02-09T11:56:12.787Z,10.03
2023-02-09T11:58:46.791Z,10.10
2023-02-09T12:01:27.312Z,10.43
2023-02-09T12:04:03.672Z,11.10
2023-02-09T12:06:38.155Z,10.67
2023-02-09T12:09:16.447Z,11.30
2023-02-09T12:11:54.006Z,11.07
2023-02-09T12:14:33.056Z,9.80
2023-02-09T12:17:16.082Z,10.00
2023-02-09T12:19:47.221Z,10.97
2023-02-09T12:22:51.653Z,10.57
2023-02-09T12:25:23.894Z,11.03
2023-02-09T12:28:16.842Z,11.10
2023-02-09T12:31:19.571Z,9.87
2023-02-09T12:34:28.921Z,9.50
2023-02-09T12:37:30.109Z,11.10
2023-02-09T12:40:22.670Z,10.63
2023-02-09T12:43:25.500Z,10.17
2023-02-09T12:46:23.318Z,11.30
2023-02-09T12:49:10.798Z,10.47
2023-02-09T12:51:43.749Z,11.23
2023-02-09T12:54:30.845Z,11.37
2023-02-09T12:57:53.275Z,11.40
2023-02-09T13:00:57.121Z,12.13
2023-02-09T13:03:27.031Z,11.87
2023-02-09T13:05:59.796Z,12.20
2023-02-09T13:08:49.842Z,11.50
2023-02-09T13:11:31.531Z,12.83
2023-02-09T13:14:03.980Z,12.53
2023-02-09T13:16:48.968Z,12.70
2023-02-09T13:19:48.089Z,12.07
2023-02-09T13:22:36.731Z,12.03
2023-02-09T13:25:16.634Z,12.23
2023-02-09T13:27:46.725Z,11.63
2023-02-09T13:30:25.226Z,11.63
2023-02-09T13:33:04.097Z,12.23
2023-02-09T13:35:35.954Z,11.57
2023-02-09T13:38:16.875Z,11.33
2023-02-09T13:40:50.564Z,12.70
2023-02-09T13:43:22.144Z,11.73
2023-02-09T13:45:52.384Z,12.03
2023-02-09T13:48:27.218Z,11.30
2023-02-09T13:50:57.418Z,11.80
2023-02-09T13:53:26.934Z,11.63
2023-02-09T13:55:57.486Z,11.60
2023-02-09T13:58:28.809Z,11.10
2023-02-09T14:01:00.255Z,12.00
2023-02-09T14:03:32.652Z,12.53
2023-02-09T14:06:04.201Z,11.33
2023-02-09T14:08:33.548Z,12.00
2023-02-09T14:11:07.383Z,11.67
2023-02-09T14:13:40.768Z,11.90
2023-02-09T14:16:08.783Z,13.17
2023-02-09T14:18:50.959Z,12.40
2023-02-09T14:21:23.458Z,12.47
2023-02-09T14:24:16.398Z,12.13
2023-02-09T14:26:48.042Z,12.53
2023-02-09T14:29:19.651Z,12.10
2023-02-09T14:31:50.403Z,12.70
2023-02-09T14:34:37.742Z,13.20
2023-02-09T14:37:29.363Z,12.10
2023-02-09T14:40:01.776Z,13.00
2023-02-09T14:42:30.939Z,13.10
2023-02-09T14:45:00.655Z,12.97
2023-02-09T14:47:32.372Z,13.10
2023-02-09T14:50:02.512Z,13.20
2023-02-09T14:52:33.257Z,13.03
2023-02-09T14:55:05.160Z,12.70
2023-02-09T14:57:36.331Z,12.70
2023-02-09T15:00:16.505Z,12.90
2023-02-09T15:02:45.608Z,13.23
2023-02-09T15:05:16.117Z,12.40
2023-02-09T15:07:48.414Z,12.67
2023-02-09T15:10:23.677Z,13.80
2023-02-09T15:12:52.426Z,14.57
2023-02-09T15:15:22.249Z,13.67
2023-02-09T15:17:51.774Z,13.60
2023-02-09T15:20:24.585Z,13.50
2023-02-09T15:22:53.006Z,13.57
2023-02-09T15:25:21.641Z,13.70
2023-02-09T15:27:52.554Z,13.77
2023-02-09T15:30:23.257Z,13.97
2023-02-09T15:32:51.703Z,14.23
2023-02-09T15:35:23.685Z,14.07
2023-02-09T15:37:55.409Z,13.00
2023-02-09T15:40:45.763Z,13.90
2023-02-09T15:43:33.939Z,13.57
2023-02-09T15:46:19.724Z,14.33
2023-02-09T15:48:48.039Z,13.80
2023-02-09T15:51:18.866Z,14.10
2023-02-09T15:53:47.973Z,14.57
2023-02-09T15:56:16.773Z,14.17
2023-02-09T15:58:48.293Z,13.97
2023-02-09T16:01:18.025Z,15.37
2023-02-09T16:03:46.799Z,14.37
2023-02-09T16:06:19.550Z,14.93
2023-02-09T16:08:49.859Z,14.60
2023-02-09T16:11:21.751Z,14.67
2023-02-09T16:13:50.888Z,14.47
2023-02-09T16:16:19.222Z,14.23
2023-02-09T16:18:48.298Z,14.77
2023-02-09T16:21:24.752Z,14.73
2023-02-09T16:23:55.660Z,13.60
2023-02-09T16:26:24.789Z,14.93
2023-02-09T16:28:54.101Z,15.13
2023-02-09T16:31:23.381Z,17.47
2023-02-09T16:33:51.766Z,17.03
2023-02-09T16:36:25.645Z,15.17
2023-02-09T16:38:53.894Z,15.03
2023-02-09T16:41:39.474Z,14.43
2023-02-09T16:44:17.733Z,15.57
2023-02-09T16:46:47.308Z,15.07
2023-02-09T16:49:35.825Z,15.93
2023-02-09T16:52:13.237Z,15.43
2023-02-09T16:54:44.864Z,15.60
2023-02-09T16:57:15.072Z,15.80
2023-02-09T16:59:43.482Z,14.77
2023-02-09T17:02:36.598Z,16.17
2023-02-09T17:05:16.243Z,15.73
2023-02-09T17:07:54.468Z,15.37
2023-02-09T17:10:26.273Z,15.30
2023-02-09T17:12:54.576Z,15.27
2023-02-09T17:15:30.697Z,15.10
2023-02-09T17:18:02.883Z,15.63
2023-02-09T17:20:37.452Z,17.43
2023-02-09T17:23:07.330Z,17.47
2023-02-09T17:25:36.417Z,16.43
2023-02-09T17:28:05.730Z,16.37
2023-02-09T17:30:35.139Z,17.00
2023-02-09T17:33:05.737Z,16.80
2023-02-09T17:36:03.501Z,16.30
2023-02-09T17:38:26.549Z,16.57
2023-02-09T17:40:56.695Z,16.07
2023-02-09T17:43:25.729Z,16.60
2023-02-09T17:45:54.320Z,17.30
2023-02-09T17:48:23.640Z,17.97
2023-02-09T17:50:57.944Z,18.17
2023-02-09T17:53:29.688Z,18.37
2023-02-09T17:55:57.980Z,17.17
2023-02-09T17:58:26.516Z,18.43
2023-02-09T18:00:56.110Z,19.97
2023-02-09T18:03:26.129Z,19.20
2023-02-09T18:05:58.527Z,17.23
2023-02-09T18:08:28.599Z,19.23
2023-02-09T18:10:58.800Z,21.30
2023-02-09T18:13:27.788Z,19.53
2023-02-09T18:15:56.583Z,19.60
2023-02-09T18:18:24.961Z,19.70
2023-02-09T18:20:53.198Z,20.03
2023-02-09T18:23:23.048Z,19.77
2023-02-09T18:25:56.092Z,19.40
2023-02-09T18:28:24.523Z,18.90
2023-02-09T18:30:52.821Z,20.37
2023-02-09T18:33:21.168Z,21.37
2023-02-09T18:35:49.757Z,20.60
2023-02-09T18:38:18.438Z,22.07
2023-02-09T18:40:46.833Z,22.30
2023-02-09T18:43:16.652Z,22.17
2023-02-09T18:45:45.485Z,21.60
2023-02-09T18:48:14.421Z,21.37
2023-02-09T18:50:42.823Z,22.27
2023-02-09T18:53:12.897Z,22.67
2023-02-09T18:55:41.224Z,23.50
2023-02-09T18:58:10.409Z,23.17
2023-02-09T19:00:40.112Z,24.53
2023-02-09T19:03:08.402Z,23.93
2023-02-09T19:05:36.727Z,23.50
2023-02-09T19:08:07.390Z,22.83
2023-02-09T19:10:36.130Z,23.90
2023-02-09T19:13:05.232Z,24.43
2023-02-09T19:15:34.712Z,24.47
2023-02-09T19:18:04.498Z,24.73
2023-02-09T19:20:34.679Z,25.07
2023-02-09T19:23:03.928Z,26.07
2023-02-09T19:25:33.210Z,25.20
2023-02-09T19:28:01.629Z,26.47
2023-02-09T19:30:36.623Z,24.73
2023-02-09T19:33:09.370Z,25.47
2023-02-09T19:35:37.704Z,25.73
2023-02-09T19:38:05.896Z,26.37
2023-02-09T19:40:40.760Z,25.90
2023-02-09T19:43:09.242Z,26.03
2023-02-09T19:45:37.786Z,26.57
2023-02-09T19:48:07.457Z,24.43
2023-02-09T19:50:38.071Z,25.33
2023-02-09T19:53:07.385Z,26.07
2023-02-09T19:55:36.260Z,25.30
2023-02-09T19:58:04.600Z,24.67
2023-02-09T20:00:33.111Z,25.90
2023-02-09T20:03:01.474Z,24.47
2023-02-09T20:05:29.794Z,25.10
2023-02-09T20:07:59.834Z,25.63
2023-02-09T20:10:28.168Z,26.80
2023-02-09T20:12:56.512Z,26.60
2023-02-09T20:15:24.912Z,25.83
2023-02-09T20:17:53.267Z,26.17
2023-02-09T20:20:21.567Z,26.03
2023-02-09T20:22:50.990Z,25.10
2023-02-09T20:25:20.719Z,24.33
2023-02-09T20:27:50.222Z,25.23
2023-02-09T20:30:19.019Z,24.90
2023-02-09T20:32:47.298Z,23.87
2023-02-09T20:35:15.739Z,22.87
2023-02-09T20:37:44.088Z,23.13
2023-02-09T20:40:13.038Z,21.80
2023-02-09T20:43:00.053Z,22.40
2023-02-09T20:45:45.867Z,21.30
2023-02-09T20:48:14.863Z,20.83
2023-02-09T20:50:45.242Z,20.47
2023-02-09T20:53:14.054Z,19.67
2023-02-09T20:55:42.932Z,21.30
2023-02-09T20:58:13.792Z,21.73
2023-02-09T21:00:42.390Z,20.97
2023-02-09T21:03:10.746Z,21.93
2023-02-09T21:05:39.158Z,22.60
2023-02-09T21:08:09.235Z,23.60
2023-02-09T21:10:38.600Z,23.87
2023-02-09T21:13:07.982Z,26.13
2023-02-09T21:15:40.752Z,25.87
2023-02-09T21:18:09.347Z,25.83
2023-02-09T21:20:37.903Z,24.47
2023-02-09T21:23:06.225Z,25.50
2023-02-09T21:25:34.665Z,24.57
2023-02-09T21:28:03.052Z,24.77
2023-02-09T21:30:31.451Z,23.80
2023-02-09T21:33:01.173Z,23.87
2023-02-09T21:35:29.674Z,24.87
2023-02-09T21:37:57.977Z,24.50
2023-02-09T21:40:26.271Z,25.00
2023-02-09T21:42:54.649Z,24.37
2023-02-09T21:45:22.925Z,24.77
2023-02-09T21:47:51.773Z,23.60
2023-02-09T21:50:22.258Z,23.83
2023-02-09T21:52:50.949Z,24.03
2023-02-09T21:55:19.361Z,24.30
2023-02-09T21:57:47.752Z,23.73
2023-02-09T22:00:16.898Z,24.80
2023-02-09T22:02:45.619Z,24.67
2023-02-09T22:05:13.926Z,25.43
2023-02-09T22:07:45.650Z,25.90
2023-02-09T22:10:13.995Z,32.63
2023-02-09T22:12:42.411Z,26.50
2023-02-09T22:15:11.522Z,31.87
2023-02-09T22:17:40.581Z,25.70
2023-02-09T22:20:11.111Z,23.73
2023-02-09T22:22:39.905Z,22.07
2023-02-09T22:25:10.181Z,22.17
2023-02-09T22:27:38.447Z,22.80
2023-02-09T22:30:07.265Z,20.30
2023-02-09T22:32:35.678Z,21.13
2023-02-09T22:35:03.989Z,19.07
2023-02-09T22:37:32.283Z,21.33
2023-02-09T22:40:00.548Z,19.70
2023-02-09T22:42:30.220Z,20.50
2023-02-09T22:44:58.475Z,20.97
2023-02-09T22:47:26.806Z,21.00
2023-02-09T22:49:55.065Z,19.43
2023-02-09T22:52:23.452Z,20.60
2023-02-09T22:54:51.969Z,19.60
2023-02-09T22:57:20.522Z,19.30
2023-02-09T22:59:50.289Z,19.27
2023-02-09T23:02:18.633Z,18.50
2023-02-09T23:04:46.941Z,19.53
2023-02-09T23:07:15.291Z,18.43
2023-02-09T23:09:43.658Z,18.77
2023-02-09T23:12:12.012Z,19.27
2023-02-09T23:14:40.269Z,19.07
2023-02-09T23:17:09.941Z,19.23
2023-02-09T23:19:40.292Z,18.77
2023-02-09T23:22:08.572Z,17.60
2023-02-09T23:24:36.859Z,19.53
2023-02-09T23:27:05.276Z,17.13
2023-02-09T23:29:33.541Z,17.27
2023-02-09T23:32:01.808Z,17.10
2023-02-09T23:34:32.981Z,17.23
2023-02-09T23:37:13.114Z,17.07
2023-02-09T23:39:47.263Z,16.40
2023-02-09T23:42:15.588Z,17.67
2023-02-09T23:44:43.845Z,15.43
2023-02-09T23:47:12.137Z,18.13
2023-02-09T23:49:41.808Z,15.63
2023-02-09T23:52:10.129Z,17.17
2023-02-09T23:54:38.382Z,17.10
2023-02-09T23:57:06.664Z,15.57
2023-02-09T23:59:34.996Z,16.17
